createdAt,value
2023-05-12T00:05:34.865Z,3.80
2023-05-12T00:10:31.385Z,3.80
2023-05-12T00:20:24.410Z,3.80
2023-05-12T00:25:20.894Z,3.50
2023-05-12T00:35:14.121Z,3.70
2023-05-12T00:40:13.858Z,3.83
2023-05-12T00:45:10.980Z,3.63
2023-05-12T00:50:08.591Z,3.95
2023-05-12T00:55:06.014Z,3.88
2023-05-12T01:00:02.700Z,3.83
2023-05-12T01:04:59.268Z,3.78
2023-05-12T01:09:56.461Z,3.88
2023-05-12T01:14:54.013Z,3.42
2023-05-12T01:19:52.587Z,3.95
2023-05-12T01:24:52.443Z,3.60
2023-05-12T01:29:49.813Z,3.60
2023-05-12T01:34:46.652Z,3.40
2023-05-12T01:39:43.158Z,3.30
2023-05-12T01:44:39.885Z,3.60
2023-05-12T01:49:36.532Z,3.38
2023-05-12T01:54:33.050Z,3.50
2023-05-12T02:04:27.121Z,3.33
2023-05-12T02:09:23.703Z,3.25
2023-05-12T02:14:21.649Z,3.17
2023-05-12T02:19:21.487Z,3.10
2023-05-12T02:24:17.986Z,3.00
2023-05-12T02:34:10.996Z,2.90
2023-05-12T02:44:04.441Z,2.75
2023-05-12T02:49:01.120Z,2.90
2023-05-12T02:53:57.692Z,3.67
2023-05-12T02:58:54.186Z,3.85
2023-05-12T03:08:47.242Z,3.47
2023-05-12T03:13:44.796Z,3.10
2023-05-12T03:23:40.770Z,3.10
2023-05-12T03:28:37.587Z,3.00
2023-05-12T03:33:34.278Z,2.95
2023-05-12T03:38:30.962Z,2.58
2023-05-12T03:43:27.432Z,2.97
2023-05-12T03:53:20.592Z,3.30
2023-05-12T03:58:17.381Z,3.40
2023-05-12T04:03:13.898Z,3.40
2023-05-12T04:08:11.445Z,3.55
2023-05-12T04:13:10.868Z,2.92
2023-05-12T04:18:07.404Z,3.58
2023-05-12T04:23:03.845Z,3.53
2023-05-12T04:32:57.183Z,3.72
2023-05-12T04:48:25.196Z,3.33
2023-05-12T04:58:17.890Z,3.47
2023-05-12T05:08:13.956Z,3.40
2023-05-12T05:13:10.434Z,3.42
2023-05-12T05:23:03.499Z,3.42
2023-05-12T05:32:56.364Z,3.40
2023-05-12T05:42:52.129Z,3.13
2023-05-12T05:47:49.940Z,3.50
2023-05-12T05:52:46.471Z,3.92
2023-05-12T05:57:43.101Z,3.83
2023-05-12T06:02:39.894Z,3.40
2023-05-12T06:07:36.404Z,3.72
2023-05-12T06:12:32.916Z,3.60
2023-05-12T06:17:31.933Z,3.75
2023-05-12T06:22:32.003Z,3.53
2023-05-12T06:27:28.468Z,2.97
2023-05-12T06:32:24.956Z,3.78
2023-05-12T06:37:21.504Z,3.40
2023-05-12T06:42:19.153Z,3.40
2023-05-12T06:47:15.610Z,3.58
2023-05-12T06:52:14.398Z,2.92
2023-05-12T06:57:10.888Z,3.17
2023-05-12T07:02:07.463Z,2.88
2023-05-12T07:07:04.029Z,3.40
2023-05-12T07:12:00.662Z,3.33
2023-05-12T07:16:57.306Z,3.20
2023-05-12T07:21:53.970Z,2.95
2023-05-12T07:26:50.448Z,3.30
2023-05-12T07:31:47.066Z,2.95
2023-05-12T07:36:43.962Z,3.45
2023-05-12T07:41:40.902Z,2.80
2023-05-12T07:46:37.396Z,2.92
2023-05-12T07:51:33.851Z,3.38
2023-05-12T07:56:30.341Z,2.95
2023-05-12T08:01:26.800Z,3.33
2023-05-12T08:06:24.921Z,3.05
2023-05-12T08:11:21.857Z,3.30
2023-05-12T08:16:18.381Z,2.80
2023-05-12T08:21:17.414Z,2.80
2023-05-12T08:26:15.628Z,2.97
2023-05-12T08:31:12.452Z,2.83
2023-05-12T08:36:08.977Z,2.72
2023-05-12T08:41:25.463Z,2.97
2023-05-12T08:46:22.621Z,3.00
2023-05-12T08:51:19.496Z,2.88
2023-05-12T09:01:19.717Z,2.45
2023-05-12T09:06:16.881Z,2.80
2023-05-12T09:11:13.445Z,2.40
2023-05-12T09:16:12.638Z,2.53
2023-05-12T09:21:09.116Z,2.25
2023-05-12T09:26:05.555Z,2.47
2023-05-12T09:31:02.241Z,2.15
2023-05-12T09:36:00.052Z,2.40
2023-05-12T09:40:56.542Z,2.50
2023-05-12T09:45:53.047Z,2.50
2023-05-12T09:50:51.528Z,2.95
2023-05-12T09:55:48.522Z,2.65
2023-05-12T10:06:12.219Z,3.80
2023-05-12T10:11:09.248Z,2.85
2023-05-12T10:16:06.518Z,2.20
2023-05-12T10:21:03.262Z,2.90
2023-05-12T10:26:02.132Z,2.47
2023-05-12T10:30:59.213Z,2.60
2023-05-12T10:35:55.842Z,2.30
2023-05-12T10:40:59.119Z,2.55
2023-05-12T10:46:22.924Z,2.53
2023-05-12T10:51:21.982Z,2.05
2023-05-12T10:56:23.447Z,2.35
2023-05-12T11:01:25.122Z,2.13
2023-05-12T11:06:22.779Z,2.53
2023-05-12T11:11:22.441Z,2.50
2023-05-12T11:16:22.262Z,2.65
2023-05-12T11:21:18.808Z,2.63
2023-05-12T11:26:18.704Z,2.53
2023-05-12T11:31:21.925Z,2.22
2023-05-12T11:36:21.662Z,2.33
2023-05-12T11:41:26.696Z,2.42
2023-05-12T11:46:25.429Z,2.10
2023-05-12T11:51:22.219Z,2.47
2023-05-12T11:56:23.564Z,2.30
2023-05-12T12:01:21.025Z,2.63
2023-05-12T12:06:18.339Z,2.25
2023-05-12T12:11:18.344Z,2.20
2023-05-12T12:16:15.373Z,2.50
2023-05-12T12:21:26.386Z,2.38
2023-05-12T12:26:23.230Z,2.28
2023-05-12T12:31:19.921Z,2.00
2023-05-12T12:36:16.560Z,2.28
2023-05-12T12:41:14.021Z,2.03
2023-05-12T12:46:10.758Z,2.63
2023-05-12T12:51:07.470Z,2.20
2023-05-12T12:56:05.324Z,2.20
2023-05-12T13:01:02.352Z,2.05
2023-05-12T13:05:59.094Z,1.85
2023-05-12T13:10:55.963Z,2.53
2023-05-12T13:15:53.318Z,2.17
2023-05-12T13:20:54.293Z,2.45
2023-05-12T13:25:52.079Z,2.05
2023-05-12T13:30:48.897Z,2.35
2023-05-12T13:35:45.648Z,1.90
2023-05-12T13:40:44.659Z,2.20
2023-05-12T13:45:43.502Z,1.98
2023-05-12T13:50:40.182Z,2.28
2023-05-12T13:55:40.797Z,2.03
2023-05-12T14:00:39.325Z,2.00
2023-05-12T14:05:36.085Z,2.03
2023-05-12T14:10:32.915Z,2.10
2023-05-12T14:15:40.125Z,2.42
2023-05-12T14:20:47.193Z,1.95
2023-05-12T14:25:48.201Z,2.47
2023-05-12T14:30:45.372Z,2.33
2023-05-12T14:35:43.406Z,2.60
2023-05-12T14:40:43.562Z,2.30
2023-05-12T14:45:40.237Z,2.60
2023-05-12T14:50:37.965Z,2.40
2023-05-12T14:55:34.542Z,2.55
2023-05-12T15:00:31.480Z,2.45
2023-05-12T15:05:52.726Z,2.22
2023-05-12T15:10:47.892Z,2.60
2023-05-12T15:15:44.584Z,2.75
2023-05-12T15:20:43.565Z,2.58
2023-05-12T15:25:43.453Z,2.85
2023-05-12T15:30:42.962Z,2.50
2023-05-12T15:35:39.596Z,2.88
2023-05-12T15:40:45.201Z,2.65
2023-05-12T15:45:41.939Z,2.65
2023-05-12T15:50:38.714Z,3.00
2023-05-12T15:55:35.466Z,2.47
2023-05-12T16:00:32.104Z,2.70
2023-05-12T16:05:31.566Z,2.60
2023-05-12T16:10:28.241Z,2.40
2023-05-12T16:15:24.998Z,2.67
2023-05-12T16:20:21.897Z,8.35
2023-05-12T16:25:18.770Z,5.05
2023-05-12T16:30:20.089Z,3.38
2023-05-12T16:35:17.673Z,2.63
2023-05-12T16:40:15.142Z,2.50
2023-05-12T16:45:12.035Z,2.60
2023-05-12T16:50:09.474Z,2.53
2023-05-12T16:55:06.875Z,2.10
2023-05-12T17:00:09.740Z,2.13
2023-05-12T17:05:08.716Z,2.30
2023-05-12T17:10:05.626Z,2.72
2023-05-12T17:15:07.615Z,2.13
2023-05-12T17:20:06.126Z,2.20
2023-05-12T17:25:02.949Z,2.28
2023-05-12T17:29:59.808Z,2.80
2023-05-12T17:34:59.144Z,2.40
2023-05-12T17:39:56.222Z,2.40
2023-05-12T17:44:55.077Z,2.30
2023-05-12T17:49:52.216Z,2.22
2023-05-12T17:54:49.429Z,2.83
2023-05-12T17:59:46.344Z,2.28
2023-05-12T18:04:42.938Z,2.30
2023-05-12T18:09:39.611Z,2.00
2023-05-12T18:14:36.449Z,2.40
2023-05-12T18:19:33.389Z,2.33
2023-05-12T18:24:30.079Z,2.60
2023-05-12T18:29:26.905Z,2.60
2023-05-12T18:34:24.331Z,2.40
2023-05-12T18:39:21.072Z,2.50
2023-05-12T18:44:17.621Z,2.50
2023-05-12T18:49:14.307Z,2.90
2023-05-12T18:54:11.230Z,3.13
2023-05-12T18:59:08.117Z,2.38
2023-05-12T19:04:08.028Z,2.92
2023-05-12T19:09:05.109Z,3.17
2023-05-12T19:14:01.845Z,3.10
2023-05-12T19:19:02.879Z,3.28
2023-05-12T19:24:03.622Z,2.83
2023-05-12T19:29:06.911Z,3.45
2023-05-12T19:34:03.679Z,3.22
2023-05-12T19:39:00.535Z,4.00
2023-05-12T19:43:58.126Z,3.45
2023-05-12T19:48:54.766Z,3.63
2023-05-12T19:53:51.469Z,3.65
2023-05-12T19:58:48.207Z,3.80
2023-05-12T20:03:51.271Z,3.60
2023-05-12T20:08:49.189Z,3.53
2023-05-12T20:13:45.874Z,3.80
2023-05-12T20:18:42.799Z,3.70
2023-05-12T20:23:39.545Z,3.85
2023-05-12T20:28:36.720Z,4.10
2023-05-12T20:33:33.411Z,3.70
2023-05-12T20:38:30.051Z,4.72
2023-05-12T20:43:31.512Z,4.10
2023-05-12T20:48:28.129Z,3.88
2023-05-12T20:53:25.029Z,4.20
2023-05-12T20:58:21.628Z,4.18
2023-05-12T21:03:18.297Z,3.72
2023-05-12T21:08:15.706Z,4.15
2023-05-12T21:13:12.346Z,3.83
2023-05-12T21:18:09.003Z,4.00
2023-05-12T21:23:08.405Z,3.58
2023-05-12T21:28:08.350Z,4.22
2023-05-12T21:33:08.015Z,4.18
2023-05-12T21:38:05.973Z,3.80
2023-05-12T21:43:02.731Z,4.10
2023-05-12T21:48:02.183Z,4.10
2023-05-12T21:52:58.836Z,3.70
2023-05-12T21:57:55.475Z,4.32
2023-05-12T22:02:52.375Z,4.05
2023-05-12T22:07:49.153Z,4.13
2023-05-12T22:12:46.587Z,3.60
2023-05-12T22:17:43.297Z,4.15
2023-05-12T22:22:40.061Z,4.28
2023-05-12T22:27:39.536Z,4.43
2023-05-12T22:32:36.467Z,4.25
2023-05-12T22:37:33.222Z,4.70
2023-05-12T22:42:29.867Z,4.00
2023-05-12T22:47:26.558Z,3.92
2023-05-12T22:52:23.283Z,4.38
2023-05-12T22:57:22.779Z,4.07
2023-05-12T23:02:19.472Z,4.07
2023-05-12T23:07:16.114Z,4.63
2023-05-12T23:12:12.789Z,4.15
2023-05-12T23:17:12.361Z,4.20
2023-05-12T23:22:11.854Z,4.43
2023-05-12T23:27:08.577Z,4.25
2023-05-12T23:32:08.145Z,4.00
2023-05-12T23:37:06.920Z,4.30
2023-05-12T23:42:03.888Z,3.70
2023-05-12T23:47:00.858Z,4.22
2023-05-12T23:51:57.305Z,4.93
2023-05-12T23:56:53.784Z,4.07
